Terminal Aerodrome Forecast
Issued by NWS

Home | Current Version | Previous Version | Graphics & Text | Print | Product List | Glossary Off
Versions: 1 2 3 4 5 6 7 8 9 10 11 12 13 14 15 16 17 18 19 20 21 22

000
FTUS41 KCLE 301130
TAFFDY
TAF
KFDY 301130Z 3012/3112 09005KT P6SM FEW250
     FM302000 VRB03KT P6SM FEW050 BKN150
     FM311100 23004KT P6SM VCSH BKN050 OVC100=

USA.gov is the U.S. government's official web portal to all federal, state and local government web resources and services.